createdAt,value
2019-05-21T05:32:35.371Z,9.60
2019-05-21T05:37:43.361Z,9.60
2019-05-21T05:42:29.482Z,7.73
2019-05-21T05:47:25.339Z,8.10
2019-05-21T05:52:21.725Z,6.00
2019-05-21T05:57:17.471Z,6.40
2019-05-21T06:02:13.226Z,6.53
2019-05-21T06:07:08.972Z,8.37
2019-05-21T06:12:04.723Z,4.90
2019-05-21T06:17:00.861Z,6.30
2019-05-21T06:21:56.966Z,6.27
2019-05-21T06:26:52.952Z,3.93
2019-05-21T06:31:48.777Z,3.83
2019-05-21T06:36:46.457Z,3.93
2019-05-21T06:41:42.399Z,4.13
2019-05-21T06:46:38.129Z,4.37
2019-05-21T06:51:33.953Z,3.77
2019-05-21T06:56:29.663Z,4.30
2019-05-21T07:01:28.810Z,4.10
2019-05-21T07:06:23.007Z,3.00
2019-05-21T07:11:18.823Z,3.20
2019-05-21T07:16:14.513Z,2.90
2019-05-21T07:21:10.240Z,3.13
2019-05-21T07:26:05.923Z,2.73
2019-05-21T07:31:01.941Z,3.10
2019-05-21T07:35:57.760Z,2.50
2019-05-21T07:40:53.567Z,5.10
2019-05-21T07:45:49.567Z,2.13
2019-05-21T07:50:45.294Z,1.90
2019-05-21T07:55:41.003Z,2.67
2019-05-21T08:00:36.929Z,2.20
2019-05-21T08:05:32.643Z,1.80
2019-05-21T08:10:28.348Z,1.70
2019-05-21T08:15:24.130Z,1.77
2019-05-21T08:20:22.064Z,1.40
2019-05-21T08:25:17.770Z,1.53
2019-05-21T08:30:14.140Z,1.63
2019-05-21T08:35:09.990Z,1.53
2019-05-21T08:40:06.169Z,1.30
2019-05-21T08:45:03.897Z,1.00
2019-05-21T08:49:59.865Z,1.07
2019-05-21T08:54:56.677Z,1.00
2019-05-21T08:59:52.594Z,1.03
2019-05-21T09:04:48.737Z,2.53
2019-05-21T09:09:50.175Z,1.00
2019-05-21T09:14:42.615Z,1.33
2019-05-21T09:19:38.422Z,1.10
2019-05-21T09:24:34.127Z,2.03
2019-05-21T09:29:30.149Z,1.13
2019-05-21T09:34:25.948Z,1.10
2019-05-21T09:39:21.674Z,1.50
2019-05-21T09:44:17.439Z,3.97
2019-05-21T09:49:13.207Z,1.60
2019-05-21T09:54:09.417Z,1.70
2019-05-21T09:59:24.548Z,1.47
2019-05-21T10:04:20.373Z,1.40
2019-05-21T10:09:18.003Z,1.70
2019-05-21T10:14:13.985Z,2.87
2019-05-21T10:19:09.892Z,1.60
2019-05-21T10:24:05.615Z,1.80
2019-05-21T10:29:01.433Z,1.70
2019-05-21T10:33:57.256Z,1.60
2019-05-21T10:38:53.073Z,3.97
2019-05-21T10:43:48.888Z,2.17
2019-05-21T10:48:44.600Z,2.87
2019-05-21T10:53:40.462Z,2.47
2019-05-21T10:58:36.703Z,1.60
2019-05-21T11:03:43.756Z,1.83
2019-05-21T11:08:40.031Z,1.77
2019-05-21T11:13:35.808Z,1.60
2019-05-21T11:18:31.646Z,1.33
2019-05-21T11:23:27.364Z,1.70
2019-05-21T11:28:23.278Z,5.03
2019-05-21T11:33:19.007Z,1.50
2019-05-21T11:38:14.837Z,1.70
2019-05-21T11:43:13.342Z,1.90
2019-05-21T11:48:09.034Z,1.50
2019-05-21T11:53:04.752Z,1.83
2019-05-21T11:58:00.584Z,2.50
2019-05-21T12:02:56.313Z,2.10
2019-05-21T12:07:52.238Z,2.00
2019-05-21T12:12:48.040Z,2.03
2019-05-21T12:17:43.751Z,4.77
2019-05-21T12:22:39.800Z,2.27
2019-05-21T12:27:35.690Z,3.40
2019-05-21T12:32:31.662Z,2.10
2019-05-21T12:37:27.477Z,3.77
2019-05-21T12:42:23.372Z,3.07
2019-05-21T12:47:19.550Z,2.83
2019-05-21T12:52:15.243Z,2.40
2019-05-21T12:57:11.033Z,2.80
2019-05-21T13:02:07.370Z,3.83
2019-05-21T13:07:04.076Z,4.13
2019-05-21T13:12:00.367Z,4.80
2019-05-21T13:16:56.199Z,14.17
2019-05-21T13:21:57.832Z,15.70
2019-05-21T13:26:54.126Z,7.30
2019-05-21T13:31:49.942Z,6.23
2019-05-21T13:36:46.177Z,6.83
2019-05-21T13:41:42.017Z,8.57
2019-05-21T13:46:37.757Z,11.20
2019-05-21T13:51:33.449Z,9.80
2019-05-21T13:56:29.264Z,11.20
2019-05-21T14:01:39.998Z,12.03
2019-05-21T14:06:23.818Z,9.40
2019-05-21T14:11:19.638Z,13.27
2019-05-21T14:16:15.357Z,14.67
2019-05-21T14:21:11.182Z,17.23
2019-05-21T14:26:07.741Z,18.63
2019-05-21T14:31:03.734Z,19.07
2019-05-21T14:35:59.626Z,18.80
2019-05-21T14:40:55.344Z,19.27
2019-05-21T14:45:51.168Z,19.60
2019-05-21T14:50:46.902Z,19.87
2019-05-21T14:55:42.616Z,20.93
2019-05-21T15:00:38.612Z,18.17
2019-05-21T15:05:34.947Z,17.50
2019-05-21T15:10:46.880Z,17.50
2019-05-21T15:15:28.742Z,15.23
2019-05-21T15:20:26.807Z,15.53
2019-05-21T15:25:23.333Z,15.30
2019-05-21T15:30:19.004Z,14.17
2019-05-21T15:35:14.822Z,14.07
2019-05-21T15:40:11.343Z,13.30
2019-05-21T15:45:07.474Z,14.00
2019-05-21T15:50:03.985Z,14.33
2019-05-21T15:54:59.705Z,15.23
2019-05-21T15:59:55.432Z,18.07
2019-05-21T16:04:51.664Z,18.13
2019-05-21T16:09:47.744Z,17.30
2019-05-21T16:14:43.443Z,18.07
2019-05-21T16:19:39.289Z,20.43
2019-05-21T16:24:35.418Z,20.50
2019-05-21T16:29:31.231Z,21.67
2019-05-21T16:34:26.935Z,21.07
2019-05-21T16:39:25.096Z,24.83
2019-05-21T16:44:20.837Z,24.77
2019-05-21T16:49:16.665Z,26.03
2019-05-21T16:54:12.406Z,27.87
2019-05-21T16:59:08.214Z,27.77
2019-05-21T17:04:04.195Z,29.57
2019-05-21T17:09:00.259Z,29.97
2019-05-21T17:13:56.358Z,33.10
2019-05-21T17:18:52.398Z,37.10
2019-05-21T17:23:48.581Z,32.43
2019-05-21T17:28:44.855Z,33.93
2019-05-21T17:33:41.101Z,37.03
2019-05-21T17:38:36.950Z,34.00
2019-05-21T17:43:33.209Z,32.50
2019-05-21T17:48:28.929Z,31.63
2019-05-21T17:53:24.980Z,32.00
2019-05-21T17:58:20.798Z,28.10
2019-05-21T18:03:17.094Z,29.57
2019-05-21T18:08:16.825Z,30.03
2019-05-21T18:13:12.012Z,25.43
2019-05-21T18:18:07.934Z,26.03
2019-05-21T18:23:05.137Z,25.57
2019-05-21T18:28:01.362Z,23.03
2019-05-21T18:32:57.372Z,25.20
2019-05-21T18:37:53.534Z,25.87
2019-05-21T18:42:49.377Z,24.60
2019-05-21T18:47:45.714Z,23.50
2019-05-21T18:52:41.732Z,24.20
2019-05-21T18:57:37.885Z,24.00
2019-05-21T19:02:34.043Z,22.53
2019-05-21T19:07:29.946Z,24.37
2019-05-21T19:12:37.606Z,29.23
2019-05-21T19:17:35.193Z,22.20
2019-05-21T19:22:22.195Z,22.90
2019-05-21T19:27:18.313Z,24.87
2019-05-21T19:32:14.019Z,26.10
2019-05-21T19:37:09.734Z,31.20
2019-05-21T19:42:06.148Z,26.97
2019-05-21T19:47:02.495Z,32.70
2019-05-21T19:51:58.463Z,32.17
2019-05-21T19:56:55.420Z,31.57
2019-05-21T20:01:52.022Z,36.17
2019-05-21T20:06:47.749Z,36.47
2019-05-21T20:11:43.844Z,40.63
2019-05-21T20:16:40.064Z,37.00
2019-05-21T20:21:35.945Z,32.47
2019-05-21T20:26:34.225Z,37.07
2019-05-21T20:31:30.751Z,34.53
2019-05-21T20:36:26.929Z,31.87
2019-05-21T20:41:23.118Z,35.90
2019-05-21T20:46:20.041Z,33.73
2019-05-21T20:51:15.756Z,36.63
2019-05-21T20:56:12.354Z,32.47
2019-05-21T21:01:08.266Z,31.17
2019-05-21T21:06:04.822Z,27.63
2019-05-21T21:11:00.937Z,29.73
2019-05-21T21:15:57.366Z,31.47
2019-05-21T21:20:53.355Z,29.00
2019-05-21T21:25:49.425Z,30.97
2019-05-21T21:30:45.389Z,31.70
2019-05-21T21:35:41.325Z,33.57
2019-05-21T21:40:37.218Z,30.00
2019-05-21T21:45:33.518Z,31.20
2019-05-21T21:50:29.430Z,30.87
2019-05-21T21:55:25.444Z,28.57
2019-05-21T22:00:58.790Z,31.40
2019-05-21T22:05:55.033Z,37.37
2019-05-21T22:10:51.402Z,33.10
2019-05-21T22:15:47.113Z,35.57
2019-05-21T22:20:42.832Z,35.70
2019-05-21T22:25:38.682Z,37.70
2019-05-21T22:30:36.841Z,32.03
2019-05-21T22:35:32.755Z,35.40
2019-05-21T22:40:28.568Z,37.83
2019-05-21T22:45:24.485Z,33.00
2019-05-21T22:50:20.187Z,33.73
2019-05-21T22:55:15.956Z,38.63
2019-05-21T23:00:12.083Z,38.07
2019-05-21T23:05:08.399Z,42.13
2019-05-21T23:10:09.465Z,43.00
2019-05-21T23:15:05.871Z,44.00
2019-05-21T23:20:04.259Z,45.13
2019-05-21T23:24:59.989Z,49.47
2019-05-21T23:29:56.130Z,48.90
2019-05-21T23:34:53.568Z,51.60
2019-05-21T23:39:51.911Z,48.37
2019-05-21T23:44:47.705Z,53.20
2019-05-21T23:49:43.714Z,56.87
2019-05-21T23:54:39.418Z,59.10
2019-05-21T23:59:35.232Z,56.70
